createdAt,value
2023-04-27T00:01:14.555Z,4.31
2023-04-27T00:03:42.002Z,4.29
2023-04-27T00:06:10.297Z,4.29
2023-04-27T00:08:37.298Z,4.29
2023-04-27T00:11:04.573Z,4.28
2023-04-27T00:13:31.153Z,4.28
2023-04-27T00:16:00.827Z,4.24
2023-04-27T00:18:27.633Z,4.19
2023-04-27T00:20:54.019Z,4.13
2023-04-27T00:23:20.808Z,4.06
2023-04-27T00:25:47.171Z,4.07
2023-04-27T00:28:13.897Z,4.07
2023-04-27T00:30:40.486Z,4.10
2023-04-27T00:33:07.254Z,4.04
2023-04-27T00:35:33.826Z,3.99
2023-04-27T00:38:00.557Z,4.05
2023-04-27T00:40:27.030Z,3.96
2023-04-27T00:42:53.564Z,3.95
2023-04-27T00:45:20.160Z,3.97
2023-04-27T00:47:46.767Z,3.96
2023-04-27T00:50:14.841Z,3.96
2023-04-27T00:52:41.751Z,3.91
2023-04-27T00:55:09.432Z,3.92
2023-04-27T00:57:35.874Z,3.84
2023-04-27T01:00:05.233Z,3.75
2023-04-27T01:02:31.793Z,3.71
2023-04-27T01:05:05.292Z,3.68
2023-04-27T01:07:31.831Z,3.67
2023-04-27T01:09:58.548Z,3.69
2023-04-27T01:12:25.077Z,3.73
2023-04-27T01:14:51.647Z,3.73
2023-04-27T01:17:18.297Z,3.76
2023-04-27T01:19:45.022Z,3.79
2023-04-27T01:22:11.598Z,3.82
2023-04-27T01:24:38.543Z,3.77
2023-04-27T01:27:06.168Z,3.77
2023-04-27T01:29:33.216Z,3.74
2023-04-27T01:31:59.715Z,3.74
2023-04-27T01:34:27.644Z,3.70
2023-04-27T01:36:54.432Z,3.71
2023-04-27T01:39:20.971Z,3.77
2023-04-27T01:41:47.344Z,3.78
2023-04-27T01:44:14.386Z,3.76
2023-04-27T01:46:41.148Z,3.76
2023-04-27T01:49:07.824Z,3.74
2023-04-27T01:51:34.287Z,3.79
2023-04-27T01:54:00.796Z,3.80
2023-04-27T01:56:27.279Z,3.78
2023-04-27T01:58:53.715Z,3.83
2023-04-27T02:01:20.181Z,3.80
2023-04-27T02:03:46.725Z,3.87
2023-04-27T02:06:14.428Z,3.82
2023-04-27T02:08:40.974Z,3.84
2023-04-27T02:11:07.513Z,3.92
2023-04-27T02:13:33.922Z,3.87
2023-04-27T02:16:02.084Z,3.94
2023-04-27T02:18:29.042Z,3.94
2023-04-27T02:20:55.456Z,3.88
2023-04-27T02:23:22.543Z,3.82
2023-04-27T02:25:49.030Z,3.74
2023-04-27T02:28:15.890Z,3.79
2023-04-27T02:30:42.844Z,3.81
2023-04-27T02:33:09.296Z,3.84
2023-04-27T02:35:35.975Z,3.81
2023-04-27T02:38:02.414Z,3.78
2023-04-27T02:40:29.076Z,3.70
2023-04-27T02:42:55.514Z,3.61
2023-04-27T02:45:22.409Z,3.51
2023-04-27T02:47:51.246Z,3.48
2023-04-27T02:50:17.851Z,3.46
2023-04-27T02:52:44.354Z,3.49
2023-04-27T02:55:11.231Z,3.46
2023-04-27T02:57:37.913Z,3.50
2023-04-27T03:00:06.891Z,3.56
2023-04-27T03:02:33.832Z,3.64
2023-04-27T03:05:00.680Z,3.68
2023-04-27T03:07:27.329Z,3.75
2023-04-27T03:09:53.775Z,3.80
2023-04-27T03:12:20.527Z,3.79
2023-04-27T03:14:46.944Z,3.81
2023-04-27T03:17:13.465Z,3.88
2023-04-27T03:19:40.083Z,3.93
2023-04-27T03:22:06.661Z,3.99
2023-04-27T03:24:34.557Z,4.01
2023-04-27T03:27:02.160Z,3.91
2023-04-27T03:29:28.908Z,3.92
2023-04-27T03:31:55.497Z,3.89
2023-04-27T03:34:23.526Z,3.88
2023-04-27T03:36:50.853Z,3.87
2023-04-27T03:39:17.672Z,3.92
2023-04-27T03:41:44.254Z,3.89
2023-04-27T03:44:10.735Z,3.82
2023-04-27T03:46:37.705Z,3.80
2023-04-27T03:49:04.118Z,3.82
2023-04-27T03:51:33.732Z,3.84
2023-04-27T03:54:00.362Z,3.85
2023-04-27T03:56:26.831Z,3.80
2023-04-27T03:58:53.220Z,3.77
2023-04-27T04:01:20.119Z,3.68
2023-04-27T04:03:48.556Z,3.62
2023-04-27T04:06:15.209Z,3.53
2023-04-27T04:08:41.612Z,3.50
2023-04-27T04:11:08.166Z,3.44
2023-04-27T04:13:36.141Z,3.47
2023-04-27T04:16:07.672Z,3.53
2023-04-27T04:18:34.845Z,3.54
2023-04-27T04:21:01.216Z,3.54
2023-04-27T04:23:27.924Z,3.53
2023-04-27T04:25:58.508Z,3.51
2023-04-27T04:28:26.222Z,3.51
2023-04-27T04:30:52.864Z,3.53
2023-04-27T04:33:19.434Z,3.55
2023-04-27T04:35:47.168Z,3.57
2023-04-27T04:38:14.034Z,3.59
2023-04-27T04:40:43.776Z,3.65
2023-04-27T04:43:12.541Z,3.68
2023-04-27T04:45:38.961Z,3.71
2023-04-27T04:48:05.898Z,3.71
2023-04-27T04:50:32.307Z,3.72
2023-04-27T04:52:58.893Z,3.77
2023-04-27T04:55:28.422Z,3.80
2023-04-27T04:57:55.397Z,3.85
2023-04-27T05:00:22.354Z,3.84
2023-04-27T05:02:49.071Z,3.86
2023-04-27T05:05:16.100Z,3.91
2023-04-27T05:07:43.104Z,3.96
2023-04-27T05:10:09.780Z,4.04
2023-04-27T05:12:37.328Z,4.07
2023-04-27T05:15:04.903Z,4.14
2023-04-27T05:17:31.723Z,4.30
2023-04-27T05:19:58.278Z,4.35
2023-04-27T05:22:25.208Z,4.40
2023-04-27T05:24:52.227Z,4.48
2023-04-27T05:27:18.886Z,4.67
2023-04-27T05:29:45.304Z,4.80
2023-04-27T05:32:12.031Z,5.08
2023-04-27T05:34:38.470Z,4.96
2023-04-27T05:37:05.560Z,4.84
2023-04-27T05:39:32.009Z,4.85
2023-04-27T05:41:59.193Z,4.96
2023-04-27T05:44:28.424Z,5.12
2023-04-27T05:46:56.057Z,5.24
2023-04-27T05:49:23.069Z,5.42
2023-04-27T05:51:49.648Z,5.59
2023-04-27T05:54:16.495Z,5.63
2023-04-27T05:56:42.957Z,5.77
2023-04-27T05:59:09.858Z,5.79
2023-04-27T06:01:36.816Z,5.83
2023-04-27T06:04:03.966Z,5.81
2023-04-27T06:06:35.615Z,5.89
2023-04-27T06:09:02.107Z,6.07
2023-04-27T06:11:28.764Z,6.16
2023-04-27T06:13:55.283Z,6.18
2023-04-27T06:16:22.236Z,6.08
2023-04-27T06:18:50.814Z,6.23
2023-04-27T06:21:17.688Z,6.29
2023-04-27T06:23:44.664Z,6.40
2023-04-27T06:26:11.439Z,6.37
2023-04-27T06:28:38.218Z,6.43
2023-04-27T06:31:05.502Z,6.50
2023-04-27T06:33:32.419Z,6.54
2023-04-27T06:36:02.979Z,6.65
2023-04-27T06:38:29.467Z,6.64
2023-04-27T06:40:56.489Z,6.83
2023-04-27T06:43:22.953Z,6.98
2023-04-27T06:45:49.973Z,7.08
2023-04-27T06:48:17.562Z,7.10
2023-04-27T06:50:44.317Z,7.32
2023-04-27T06:53:11.513Z,7.51
2023-04-27T06:55:38.015Z,7.44
2023-04-27T06:58:04.996Z,7.37
2023-04-27T07:00:31.911Z,7.51
2023-04-27T07:02:58.515Z,7.60
2023-04-27T07:05:25.514Z,7.70
2023-04-27T07:07:52.057Z,7.81
2023-04-27T07:10:20.452Z,7.93
2023-04-27T07:12:46.986Z,8.03
2023-04-27T07:15:13.752Z,8.20
2023-04-27T07:17:41.401Z,8.21
2023-04-27T07:20:08.774Z,8.39
2023-04-27T07:22:35.605Z,8.16
2023-04-27T07:25:02.181Z,8.40
2023-04-27T07:27:28.759Z,8.36
2023-04-27T07:29:55.154Z,8.42
2023-04-27T07:32:22.610Z,8.56
2023-04-27T07:34:54.057Z,8.50
2023-04-27T07:37:21.801Z,8.36
2023-04-27T07:39:53.009Z,8.50
2023-04-27T07:42:22.186Z,8.57
2023-04-27T07:44:50.697Z,8.63
2023-04-27T07:47:18.602Z,8.86
2023-04-27T07:49:46.403Z,8.98
2023-04-27T07:52:13.244Z,8.99
2023-04-27T07:54:40.080Z,8.90
2023-04-27T07:57:11.483Z,9.09
2023-04-27T07:59:38.902Z,9.06
2023-04-27T08:02:18.268Z,9.02
2023-04-27T08:04:46.653Z,9.11
2023-04-27T08:07:14.229Z,8.97
2023-04-27T08:09:40.996Z,9.10
2023-04-27T08:12:07.870Z,9.24
2023-04-27T08:14:35.574Z,9.37
2023-04-27T08:17:02.896Z,9.38
2023-04-27T08:19:29.395Z,9.42
2023-04-27T08:21:56.094Z,9.44
2023-04-27T08:24:22.485Z,9.49
2023-04-27T08:26:49.423Z,9.57
2023-04-27T08:29:27.094Z,9.69
2023-04-27T08:31:56.463Z,9.81
2023-04-27T08:34:24.855Z,9.93
2023-04-27T08:36:51.821Z,10.09
2023-04-27T08:39:18.658Z,10.11
2023-04-27T08:41:46.225Z,10.18
2023-04-27T08:44:13.260Z,10.14
2023-04-27T08:46:39.926Z,10.15
2023-04-27T08:49:07.523Z,10.27
2023-04-27T08:51:34.648Z,10.40
2023-04-27T08:54:01.349Z,10.40
2023-04-27T08:56:29.713Z,10.41
2023-04-27T08:58:58.992Z,10.70
2023-04-27T09:01:28.829Z,10.58
2023-04-27T09:03:56.954Z,10.49
2023-04-27T09:06:35.569Z,10.54
2023-04-27T09:09:03.676Z,10.58
2023-04-27T09:11:39.402Z,10.69
2023-04-27T09:14:21.989Z,10.79
2023-04-27T09:16:59.878Z,10.80
2023-04-27T09:19:29.053Z,10.89
2023-04-27T09:22:07.335Z,10.91
2023-04-27T09:24:34.186Z,11.16
2023-04-27T09:27:01.634Z,11.34
2023-04-27T09:29:38.664Z,11.37
2023-04-27T09:32:17.241Z,11.20
2023-04-27T09:34:44.586Z,11.10
2023-04-27T09:37:11.101Z,11.41
2023-04-27T09:39:38.804Z,11.53
2023-04-27T09:42:05.626Z,11.55
2023-04-27T09:44:32.728Z,11.74
2023-04-27T09:47:00.599Z,11.59
2023-04-27T09:49:29.160Z,11.67
2023-04-27T09:51:58.570Z,11.69
2023-04-27T09:54:30.181Z,11.83
2023-04-27T09:57:12.007Z,12.26
2023-04-27T09:59:53.666Z,12.64
2023-04-27T10:02:24.914Z,12.72
2023-04-27T10:05:03.333Z,12.50
2023-04-27T10:07:32.372Z,12.27
2023-04-27T10:10:02.372Z,12.44
2023-04-27T10:12:36.791Z,12.81
2023-04-27T10:15:15.650Z,12.99
2023-04-27T10:17:50.294Z,12.80
2023-04-27T10:20:17.745Z,12.96
2023-04-27T10:22:49.981Z,12.79
2023-04-27T10:25:26.159Z,12.82
2023-04-27T10:28:02.727Z,12.99
2023-04-27T10:30:36.126Z,13.10
2023-04-27T10:33:10.748Z,13.01
2023-04-27T10:35:40.187Z,12.98
2023-04-27T10:38:11.201Z,13.15
2023-04-27T10:40:38.623Z,13.10
2023-04-27T10:43:10.470Z,13.26
2023-04-27T10:45:37.523Z,13.47
2023-04-27T10:48:05.150Z,13.60
2023-04-27T10:50:34.494Z,13.81
2023-04-27T10:53:07.101Z,14.24
2023-04-27T10:55:35.034Z,14.51
2023-04-27T10:58:02.085Z,14.62
2023-04-27T11:00:32.982Z,14.74
2023-04-27T11:03:23.182Z,14.98
2023-04-27T11:06:00.144Z,15.06
2023-04-27T11:08:26.923Z,15.26
2023-04-27T11:10:53.379Z,14.72
2023-04-27T11:13:22.277Z,14.67
2023-04-27T11:15:55.886Z,14.58
2023-04-27T11:18:24.472Z,14.94
2023-04-27T11:20:54.247Z,15.19
2023-04-27T11:23:25.279Z,15.41
2023-04-27T11:25:52.376Z,15.66
2023-04-27T11:28:20.083Z,15.63
2023-04-27T11:30:46.592Z,15.35
2023-04-27T11:33:13.647Z,15.63
2023-04-27T11:35:40.204Z,15.80
2023-04-27T11:38:15.541Z,15.85
2023-04-27T11:40:42.668Z,16.07
2023-04-27T11:43:13.461Z,16.26
2023-04-27T11:45:46.804Z,16.05
2023-04-27T11:48:16.723Z,15.93
2023-04-27T11:50:48.453Z,15.62
2023-04-27T11:53:17.412Z,15.19
2023-04-27T11:55:45.862Z,15.24
2023-04-27T11:58:16.724Z,15.49
2023-04-27T12:00:43.343Z,15.90
2023-04-27T12:03:11.467Z,16.07
2023-04-27T12:05:48.884Z,16.00
2023-04-27T12:08:17.125Z,15.90
2023-04-27T12:10:44.531Z,15.71
2023-04-27T12:13:12.388Z,15.36
2023-04-27T12:15:39.591Z,15.62
2023-04-27T12:18:09.437Z,15.97
2023-04-27T12:20:36.924Z,16.25
2023-04-27T12:23:03.341Z,16.12
2023-04-27T12:25:30.339Z,15.37
2023-04-27T12:27:57.259Z,15.25
2023-04-27T12:30:24.204Z,15.52
2023-04-27T12:32:51.222Z,15.68
2023-04-27T12:35:18.087Z,15.19
2023-04-27T12:37:44.665Z,15.49
2023-04-27T12:40:11.402Z,15.65
2023-04-27T12:42:37.804Z,15.89
2023-04-27T12:45:04.759Z,16.18
2023-04-27T12:50:05.601Z,16.64
2023-04-27T12:52:32.223Z,16.62
2023-04-27T12:54:59.466Z,16.86
2023-04-27T12:57:26.600Z,16.90
2023-04-27T12:59:53.342Z,16.89
2023-04-27T13:02:20.298Z,17.14
2023-04-27T13:04:46.871Z,17.46
2023-04-27T13:07:13.864Z,17.39
2023-04-27T13:09:41.741Z,17.04
2023-04-27T13:12:08.228Z,16.99
2023-04-27T13:14:34.768Z,17.00
2023-04-27T13:17:02.066Z,16.60
2023-04-27T13:19:28.976Z,16.62
2023-04-27T13:21:55.490Z,16.52
2023-04-27T13:24:22.728Z,16.69
2023-04-27T13:26:49.521Z,16.62
2023-04-27T13:29:15.908Z,16.41
2023-04-27T13:31:43.067Z,16.44
2023-04-27T13:34:09.759Z,16.23
2023-04-27T13:36:36.328Z,15.99
2023-04-27T13:39:02.888Z,16.09
2023-04-27T13:41:29.449Z,16.44
2023-04-27T13:43:55.903Z,16.15
2023-04-27T13:46:22.582Z,16.24
2023-04-27T13:48:49.155Z,16.31
2023-04-27T13:51:16.048Z,16.40
2023-04-27T13:53:43.011Z,16.22
2023-04-27T13:56:09.586Z,16.27
2023-04-27T13:58:37.282Z,16.42
2023-04-27T14:01:03.876Z,16.24
2023-04-27T14:03:30.773Z,16.05
2023-04-27T14:05:57.347Z,15.79
2023-04-27T14:08:24.177Z,15.65
2023-04-27T14:10:50.717Z,15.92
2023-04-27T14:13:18.238Z,15.75
2023-04-27T14:15:44.948Z,15.99
2023-04-27T14:18:11.671Z,16.01
2023-04-27T14:20:42.113Z,15.84
2023-04-27T14:23:09.102Z,16.00
2023-04-27T14:25:35.995Z,16.48
2023-04-27T14:28:04.412Z,16.88
2023-04-27T14:30:31.988Z,17.18
2023-04-27T14:32:59.208Z,17.00
2023-04-27T14:35:26.072Z,17.03
2023-04-27T14:37:53.486Z,17.08
2023-04-27T14:40:20.102Z,16.97
2023-04-27T14:42:47.064Z,17.13
2023-04-27T14:45:13.606Z,17.26
2023-04-27T14:47:40.431Z,17.32
2023-04-27T14:50:07.561Z,17.40
2023-04-27T14:52:34.210Z,17.20
2023-04-27T14:55:00.962Z,17.12
2023-04-27T14:57:27.685Z,17.07
2023-04-27T14:59:54.594Z,17.22
2023-04-27T15:02:21.286Z,17.16
2023-04-27T15:04:48.185Z,17.04
2023-04-27T15:07:14.784Z,16.87
2023-04-27T15:09:41.218Z,16.97
2023-04-27T15:12:09.902Z,17.29
2023-04-27T15:14:36.281Z,17.01
2023-04-27T15:17:03.010Z,17.23
2023-04-27T15:19:29.460Z,17.33
2023-04-27T15:21:56.784Z,17.30
2023-04-27T15:24:23.180Z,17.40
2023-04-27T15:26:50.004Z,17.61
2023-04-27T15:29:17.098Z,17.84
2023-04-27T15:31:43.482Z,17.71
2023-04-27T15:34:10.108Z,17.76
2023-04-27T15:36:36.494Z,17.65
2023-04-27T15:39:03.110Z,17.40
2023-04-27T15:41:29.515Z,17.36
2023-04-27T15:43:56.134Z,16.89
2023-04-27T15:46:22.658Z,17.21
2023-04-27T15:48:49.235Z,17.33
2023-04-27T15:51:15.848Z,17.40
2023-04-27T15:53:42.299Z,16.92
2023-04-27T15:56:09.048Z,16.78
2023-04-27T15:58:35.554Z,16.91
2023-04-27T16:01:05.749Z,16.87
2023-04-27T16:03:34.551Z,16.89
2023-04-27T16:06:01.151Z,16.78
2023-04-27T16:08:27.822Z,16.97
2023-04-27T16:10:54.738Z,16.98
2023-04-27T16:13:21.447Z,16.99
2023-04-27T16:15:49.015Z,16.88
2023-04-27T16:18:15.397Z,16.78
2023-04-27T16:20:42.002Z,16.34
2023-04-27T16:23:08.423Z,16.04
2023-04-27T16:25:35.388Z,15.90
2023-04-27T16:28:02.284Z,15.73
2023-04-27T16:30:28.797Z,15.68
2023-04-27T16:32:55.701Z,15.81
2023-04-27T16:35:22.258Z,15.71
2023-04-27T16:37:50.099Z,15.68
2023-04-27T16:40:16.751Z,15.38
2023-04-27T16:42:43.337Z,15.35
2023-04-27T16:45:11.021Z,15.19
2023-04-27T16:47:37.940Z,15.11
2023-04-27T16:50:05.118Z,15.26
2023-04-27T16:52:31.884Z,15.11
2023-04-27T16:54:58.266Z,15.09
2023-04-27T16:57:24.912Z,14.95
2023-04-27T16:59:51.659Z,14.91
2023-04-27T17:02:24.961Z,14.70
2023-04-27T17:04:54.301Z,14.65
2023-04-27T17:07:21.300Z,14.60
2023-04-27T17:09:47.899Z,14.66
2023-04-27T17:12:15.278Z,14.59
2023-04-27T17:14:42.948Z,14.60
2023-04-27T17:17:10.457Z,14.50
2023-04-27T17:19:37.022Z,14.54
2023-04-27T17:22:04.236Z,14.47
2023-04-27T17:24:30.761Z,14.39
2023-04-27T17:26:57.238Z,14.35
2023-04-27T17:29:24.794Z,14.38
2023-04-27T17:31:51.277Z,14.30
2023-04-27T17:34:17.904Z,14.29
2023-04-27T17:36:44.354Z,14.06
2023-04-27T17:39:12.795Z,14.00
2023-04-27T17:41:39.900Z,13.93
2023-04-27T17:44:06.968Z,13.96
2023-04-27T17:46:33.609Z,13.83
2023-04-27T17:49:00.315Z,13.73
2023-04-27T17:51:27.335Z,13.66
2023-04-27T17:53:55.718Z,13.75
2023-04-27T17:56:22.653Z,13.63
2023-04-27T17:58:49.265Z,13.56
2023-04-27T18:01:15.790Z,13.63
2023-04-27T18:03:42.562Z,13.57
2023-04-27T18:06:09.434Z,13.48
2023-04-27T18:08:35.837Z,13.37
2023-04-27T18:11:02.655Z,13.27
2023-04-27T18:13:29.167Z,13.17
2023-04-27T18:15:55.806Z,13.05
2023-04-27T18:18:24.676Z,12.95
2023-04-27T18:20:51.787Z,12.86
2023-04-27T18:23:18.367Z,12.74
2023-04-27T18:25:44.761Z,12.69
2023-04-27T18:28:11.365Z,12.63
2023-04-27T18:30:38.772Z,12.47
2023-04-27T18:33:05.259Z,12.32
2023-04-27T18:35:31.851Z,12.31
2023-04-27T18:37:58.255Z,12.24
2023-04-27T18:40:26.535Z,12.09
2023-04-27T18:42:53.245Z,11.81
2023-04-27T18:45:20.505Z,11.62
2023-04-27T18:47:46.989Z,11.54
2023-04-27T18:50:13.703Z,11.56
2023-04-27T18:52:40.443Z,11.47
2023-04-27T18:55:09.057Z,11.34
2023-04-27T18:57:36.035Z,11.36
2023-04-27T19:00:05.778Z,11.29
2023-04-27T19:02:33.460Z,11.26
2023-04-27T19:05:10.986Z,11.20
2023-04-27T19:07:38.844Z,11.14
2023-04-27T19:10:06.549Z,11.11
2023-04-27T19:12:33.126Z,11.11
2023-04-27T19:14:59.504Z,11.07
2023-04-27T19:17:26.202Z,11.03
2023-04-27T19:19:52.808Z,10.99
2023-04-27T19:22:19.335Z,11.00
2023-04-27T19:24:45.768Z,11.02
2023-04-27T19:27:12.685Z,11.04
2023-04-27T19:29:50.975Z,10.95
2023-04-27T19:32:17.564Z,10.92
2023-04-27T19:34:43.997Z,10.86
2023-04-27T19:37:10.519Z,10.73
2023-04-27T19:39:38.874Z,10.68
2023-04-27T19:42:05.490Z,10.69
2023-04-27T19:44:31.913Z,10.68
2023-04-27T19:46:58.281Z,10.59
2023-04-27T19:49:24.900Z,10.66
2023-04-27T19:51:51.445Z,10.60
2023-04-27T19:54:18.321Z,10.66
2023-04-27T19:56:44.849Z,10.71
2023-04-27T19:59:11.724Z,10.70
2023-04-27T20:01:38.134Z,10.71
2023-04-27T20:04:05.018Z,10.74
2023-04-27T20:06:32.243Z,10.76
2023-04-27T20:08:58.829Z,10.78
2023-04-27T20:11:25.402Z,10.81
2023-04-27T20:13:51.876Z,10.83
2023-04-27T20:16:19.717Z,10.87
2023-04-27T20:18:46.591Z,10.91
2023-04-27T20:21:13.546Z,10.93
2023-04-27T20:23:40.241Z,10.91
2023-04-27T20:26:06.867Z,10.88
2023-04-27T20:28:33.598Z,10.91
2023-04-27T20:30:59.974Z,10.94
2023-04-27T20:33:26.582Z,10.85
2023-04-27T20:36:03.729Z,10.85
2023-04-27T20:38:33.025Z,10.86
2023-04-27T20:41:01.392Z,10.83
2023-04-27T20:43:27.875Z,10.96
2023-04-27T20:45:54.457Z,10.87
2023-04-27T20:48:21.459Z,10.86
2023-04-27T20:50:47.904Z,10.84
2023-04-27T20:53:14.262Z,10.93
2023-04-27T20:55:41.086Z,10.86
2023-04-27T20:58:07.643Z,10.89
2023-04-27T21:00:34.261Z,10.94
2023-04-27T21:03:00.957Z,10.94
2023-04-27T21:05:29.114Z,10.99
2023-04-27T21:07:56.922Z,10.95
2023-04-27T21:10:23.921Z,10.92
2023-04-27T21:12:50.473Z,10.92
2023-04-27T21:15:17.229Z,10.93
2023-04-27T21:17:43.854Z,10.89
2023-04-27T21:20:11.338Z,10.89
2023-04-27T21:22:37.921Z,10.92
2023-04-27T21:25:05.067Z,10.93
2023-04-27T21:27:31.651Z,11.00
2023-04-27T21:29:59.272Z,10.95
2023-04-27T21:32:25.916Z,11.07
2023-04-27T21:34:52.533Z,11.13
2023-04-27T21:37:19.119Z,11.08
2023-04-27T21:39:45.676Z,11.02
2023-04-27T21:42:12.057Z,11.00
2023-04-27T21:44:38.414Z,11.02
2023-04-27T21:47:05.123Z,11.09
2023-04-27T21:49:31.544Z,11.05
2023-04-27T21:51:58.179Z,11.02
2023-04-27T21:54:24.590Z,11.16
2023-04-27T21:56:51.404Z,11.15
2023-04-27T21:59:17.870Z,11.21
2023-04-27T22:01:45.408Z,11.31
2023-04-27T22:04:12.038Z,11.36
2023-04-27T22:06:38.671Z,11.35
2023-04-27T22:09:07.731Z,11.36
2023-04-27T22:11:34.642Z,11.31
2023-04-27T22:14:01.075Z,11.25
2023-04-27T22:16:28.374Z,11.29
2023-04-27T22:18:55.086Z,11.23
2023-04-27T22:21:23.397Z,11.27
2023-04-27T22:23:50.046Z,11.37
2023-04-27T22:26:16.473Z,11.31
2023-04-27T22:28:42.909Z,11.29
2023-04-27T22:31:09.366Z,11.36
2023-04-27T22:33:36.828Z,11.38
2023-04-27T22:36:03.622Z,11.39
2023-04-27T22:38:31.435Z,11.35
2023-04-27T22:40:57.827Z,11.50
2023-04-27T22:43:24.230Z,11.35
2023-04-27T22:45:50.926Z,11.35
2023-04-27T22:48:17.499Z,11.31
2023-04-27T22:50:43.928Z,11.36
2023-04-27T22:53:10.545Z,11.25
2023-04-27T22:55:36.938Z,11.21
2023-04-27T22:58:03.702Z,11.15
2023-04-27T23:00:30.688Z,11.16
2023-04-27T23:02:57.762Z,11.21
2023-04-27T23:05:24.785Z,11.10
2023-04-27T23:07:52.170Z,11.14
2023-04-27T23:10:19.067Z,11.14
2023-04-27T23:12:45.698Z,11.07
2023-04-27T23:15:12.924Z,11.03
2023-04-27T23:17:39.327Z,10.97
2023-04-27T23:20:11.121Z,10.92
2023-04-27T23:22:43.820Z,10.89
2023-04-27T23:25:11.634Z,10.96
2023-04-27T23:27:38.052Z,10.97
2023-04-27T23:30:05.236Z,10.87
2023-04-27T23:32:31.692Z,10.86
2023-04-27T23:34:58.374Z,10.93
2023-04-27T23:37:25.299Z,11.05
2023-04-27T23:39:51.731Z,11.05
2023-04-27T23:42:18.257Z,11.03
2023-04-27T23:44:44.661Z,10.85
2023-04-27T23:47:11.462Z,10.86
2023-04-27T23:49:38.058Z,10.98
2023-04-27T23:52:05.031Z,11.00
2023-04-27T23:54:32.121Z,10.95
2023-04-27T23:56:58.922Z,10.97
2023-04-27T23:59:25.554Z,10.85
